Terminal Aerodrome Forecast
Issued by NWS

Home | Current Version | Previous Version | Text Only | Print | Product List | Glossary On
Versions: 1 2 3 4 5 6 7 8 9 10 11 12 13
000
FTUS46 KSEW 180500
TAFBLI
TAF
KBLI 180520Z 1806/1906 VRB03KT P6SM VCSH SCT025 BKN050
      TEMPO 1806/1810 -SHRA BKN025 OVC040
     FM181000 VRB04KT P6SM VCSH BKN035 OVC060
     FM181700 12007KT P6SM BKN050 OVC100
     FM190200 14011KT P6SM -RA OVC035=

USA.gov is the U.S. government's official web portal to all federal, state and local government web resources and services.